Elger Bay, Washington
Current Conditions -  °F | °C
As of 12:15 PM on Friday 19 Dec 2014 (Local Time) from KAWO Reporting Station
Broken Clouds Broken Clouds  
Wind Chill:   Ceiling: 2400
Heat Index:   Visibility: 10mi
Dew Point:   Wind: 14mph
Humidity: 76%   Direction: 160°SSE
Pressure: 29.95"   Gusts: NA
Location:  48.2145°N, 122.297°W
Report Text: KAWO 192015Z AUTO 16012KT 10SM BKN024 BKN030 09/05 A2995 RMK AO1
Loading
Personal Weather Stations






























Interactive Weather Map New forecast layout! Learn more

10-Day Weather Forecast

Advertisements
Track Severe Weather on mobile